KHCO

Details ICAO KHCO
Name HALLOCK MUNI
Region United States
Timezone America/Chicago (UTC-6.0)
Plans Departing 1
Arriving 0
Stats Elevation 819 ft / 250 m (AMSL)
Location 48.752742° -96.943003°
Runways 1
Magnetic Variation 2.914° E
Sunrise 2017-12-11 14:12:23 UTC / 2017-12-11 08:12:23 Local
Sunset 2017-12-11 22:32:50 UTC / 2017-12-11 16:32:50 Local
Advertisement - Login to hide

Runways

ID Width Length Bearing (true) Bearing (mag) Surface Threshold Offset Overrun Length
13 75 ft / 23 m 4,003 ft / 1,220 m 139.97° 137.06° Asphalt 0 ft / 0 m 0 ft / 0 m
31 75 ft / 23 m 4,003 ft / 1,220 m 319.98° 317.07° Asphalt 0 ft / 0 m 0 ft / 0 m

Map

Weather


0- 5 10 15 20 25 30 35+ Temperature / ° C

Clouds and Precipitation
Forecast for 2017-12-12 00:00 UTC. Updated 2 hours ago

Ground ~20,000 ft ~40,000 ft Winds

METAR

KHCO 112055Z AUTO 35019G22KT 2 1/2SM HZ BKN012 M11/M13 A3027 RMK AO2 VIS 1 1/2V5

TAF

Not found

Frequencies

Recorded 126.47 MHz AWOS 3
Approach 132.15 MHz MINNEAPOLIS APP/DEP
Unicom 122.80 MHz CTAF/UNICOM
Warning: Do not use this data for real-world aviation or navigation. No guarantee of current accuracy is given.